Time;durP1;ratioP1;P1;durP2;ratioP2;P2;SDS_P1;SDS_P2;PMS_P1;PMS_P2;Temp;Humidity;BMP_temperature;BMP_pressure;BME280_temperature;BME280_humidity;BME280_pressure;Samples;Min_cycle;Max_cycle;Signal;HPM_P1;HPM_P2
2023/04/26 00:01:57;;;;;;;7.97;2.80;;;4.70;99.90;;;;;;6061609;23;98618;-79
2023/04/26 00:04:24;;;;;;;8.07;2.40;;;4.70;99.90;;;;;;6060998;23;101947;-79
2023/04/26 00:06:51;;;;;;;6.80;2.08;;;4.70;99.90;;;;;;6062954;23;100408;-79
2023/04/26 00:09:18;;;;;;;7.28;2.67;;;4.70;99.90;;;;;;6063208;23;98406;-79
2023/04/26 00:11:46;;;;;;;7.18;2.83;;;4.70;99.90;;;;;;6061673;23;98543;-79
2023/04/26 00:14:13;;;;;;;7.07;2.58;;;4.70;99.90;;;;;;6060852;23;101799;-79
2023/04/26 00:16:40;;;;;;;9.35;3.10;;;4.80;99.90;;;;;;6037761;23;100207;-79
2023/04/26 00:19:09;;;;;;;4.00;2.85;;;4.90;99.90;;;;;;6063607;23;98513;-79
2023/04/26 00:21:36;;;;;;;7.70;3.33;;;5.00;99.90;;;;;;6063600;23;98556;-79
2023/04/26 00:24:04;;;;;;;7.47;2.53;;;5.00;99.90;;;;;;6060677;23;103788;-79
2023/04/26 00:26:33;;;;;;;7.65;2.60;;;5.10;99.90;;;;;;6062544;23;99786;-79
2023/04/26 00:29:01;;;;;;;8.50;3.00;;;5.20;99.90;;;;;;6061606;23;98614;-79
2023/04/26 00:31:28;;;;;;;3.83;2.20;;;5.30;99.90;;;;;;6063283;23;99076;-80
2023/04/26 00:33:55;;;;;;;5.45;2.65;;;5.30;99.90;;;;;;6061322;23;101721;-79
2023/04/26 00:36:22;;;;;;;9.52;2.35;;;5.20;99.90;;;;;;6085553;23;99028;-79
2023/04/26 00:38:49;;;;;;;10.32;2.78;;;5.20;99.90;;;;;;6037621;23;98731;-79
2023/04/26 00:41:16;;;;;;;8.73;3.10;;;5.20;99.90;;;;;;6061810;23;98372;-79
2023/04/26 00:43:44;;;;;;;8.57;2.72;;;5.10;99.90;;;;;;6062820;23;99327;-79
2023/04/26 00:46:11;;;;;;;9.60;3.00;;;5.10;99.90;;;;;;6060790;23;101630;-79
2023/04/26 00:48:38;;;;;;;10.63;2.63;;;5.00;99.90;;;;;;6061165;23;99225;-79
2023/04/26 00:51:06;;;;;;;6.15;2.67;;;5.00;99.90;;;;;;6061303;23;98588;-79
2023/04/26 00:53:35;;;;;;;9.45;3.00;;;4.90;99.90;;;;;;6061032;23;99513;-79
2023/04/26 00:56:05;;;;;;;8.25;2.70;;;4.80;99.90;;;;;;6062868;23;98906;-80
2023/04/26 00:58:32;;;;;;;6.18;2.80;;;4.80;99.90;;;;;;6061274;23;99043;-79
2023/04/26 01:00:59;;;;;;;8.63;2.45;;;4.80;99.90;;;;;;6061466;23;98560;-79
2023/04/26 01:03:26;;;;;;;8.93;2.88;;;4.70;99.90;;;;;;6060720;23;101818;-79
2023/04/26 01:05:54;;;;;;;5.38;2.55;;;4.70;99.90;;;;;;6085854;23;99737;-80
2023/04/26 01:08:22;;;;;;;9.93;2.88;;;4.60;99.90;;;;;;6060890;23;98472;-80
2023/04/26 01:10:49;;;;;;;9.23;2.85;;;4.60;99.90;;;;;;6061403;23;98604;-80
2023/04/26 01:13:16;;;;;;;8.23;2.70;;;4.60;99.90;;;;;;6035698;23;105992;-79
2023/04/26 01:15:46;;;;;;;11.30;3.03;;;4.60;99.90;;;;;;6060724;23;102434;-79
2023/04/26 01:18:14;;;;;;;7.70;2.65;;;4.60;99.90;;;;;;6061435;23;98589;-80
2023/04/26 01:20:42;;;;;;;5.03;2.45;;;4.60;99.90;;;;;;6061398;23;98599;-79
2023/04/26 01:23:10;;;;;;;8.15;2.90;;;4.70;99.90;;;;;;6062661;23;99483;-79
2023/04/26 01:25:38;;;;;;;14.48;3.20;;;4.70;99.90;;;;;;6084969;23;98968;-79
2023/04/26 01:28:05;;;;;;;6.93;2.50;;;4.70;99.90;;;;;;6063185;23;98452;-79
2023/04/26 01:30:32;;;;;;;3.22;2.55;;;4.80;99.90;;;;;;6086134;23;98201;-80
2023/04/26 01:33:02;;;;;;;8.80;2.25;;;4.90;99.90;;;;;;6060714;23;102936;-80
2023/04/26 01:35:29;;;;;;;6.15;2.20;;;4.90;99.90;;;;;;6060612;23;101476;-80
2023/04/26 01:37:56;;;;;;;4.85;2.85;;;4.90;99.90;;;;;;6062699;23;99183;-80
2023/04/26 01:40:23;;;;;;;4.80;2.40;;;4.90;99.90;;;;;;6061139;23;98533;-80
2023/04/26 01:42:50;;;;;;;8.55;2.55;;;4.90;99.90;;;;;;6061007;23;101859;-80
2023/04/26 01:45:17;;;;;;;7.35;2.60;;;4.80;99.90;;;;;;6060878;23;105766;-79
2023/04/26 01:48:02;;;;;;;7.75;2.70;;;4.80;99.90;;;;;;6063305;23;98537;-79
2023/04/26 01:50:31;;;;;;;8.55;2.80;;;4.70;99.90;;;;;;6060750;23;98582;-80
2023/04/26 01:52:58;;;;;;;12.15;2.60;;;4.70;99.90;;;;;;6060952;23;101860;-79
2023/04/26 01:55:25;;;;;;;8.75;3.22;;;4.70;99.90;;;;;;6061393;23;98926;-80
2023/04/26 01:57:52;;;;;;;4.00;2.30;;;4.70;99.90;;;;;;6037148;23;98554;-80
2023/04/26 02:00:19;;;;;;;7.32;2.95;;;4.70;99.90;;;;;;6062900;23;99516;-79
2023/04/26 02:02:48;;;;;;;10.40;3.00;;;4.60;99.90;;;;;;6062095;23;99949;-79
2023/04/26 02:05:15;;;;;;;9.55;2.95;;;4.60;99.90;;;;;;6060700;23;102370;-79
2023/04/26 02:07:42;;;;;;;8.05;2.50;;;4.60;99.90;;;;;;6060722;23;98472;-80
2023/04/26 02:10:09;;;;;;;9.52;2.55;;;4.50;99.90;;;;;;6061357;23;99117;-79
2023/04/26 02:12:36;;;;;;;7.15;2.58;;;4.50;99.90;;;;;;6061918;23;105311;-79
2023/04/26 02:15:05;;;;;;;9.95;3.55;;;4.50;99.90;;;;;;6060885;23;101687;-80
2023/04/26 02:17:33;;;;;;;6.07;2.78;;;4.50;99.90;;;;;;6036939;23;98550;-79
2023/04/26 02:20:00;;;;;;;6.68;2.58;;;4.50;99.90;;;;;;6061320;23;97794;-79
2023/04/26 02:22:27;;;;;;;10.38;2.65;;;4.50;99.90;;;;;;6085139;23;99564;-80
2023/04/26 02:24:54;;;;;;;6.10;2.83;;;4.50;99.90;;;;;;6060695;23;101845;-80
2023/04/26 02:27:26;;;;;;;6.70;2.67;;;4.60;99.90;;;;;;6062183;23;99255;-79
2023/04/26 02:29:53;;;;;;;5.55;2.85;;;4.60;99.90;;;;;;6061320;23;98569;-80
2023/04/26 02:32:20;;;;;;;4.70;2.65;;;4.70;99.90;;;;;;6060830;23;102421;-80
2023/04/26 02:34:47;;;;;;;7.55;2.55;;;4.70;99.90;;;;;;6060465;23;101727;-79
2023/04/26 02:37:14;;;;;;;7.95;2.60;;;4.70;99.90;;;;;;6086005;23;98542;-80
2023/04/26 02:39:41;;;;;;;9.52;2.70;;;4.70;99.90;;;;;;6036776;23;98657;-80
2023/04/26 02:42:12;;;;;;;7.65;2.33;;;4.70;99.90;;;;;;6036672;23;102072;-80
2023/04/26 02:44:40;;;;;;;5.03;2.63;;;4.70;99.90;;;;;;6037150;23;101656;-79
2023/04/26 02:47:07;;;;;;;4.30;2.60;;;4.60;99.90;;;;;;6061094;23;98428;-80
2023/04/26 02:49:34;;;;;;;8.13;2.72;;;4.60;99.90;;;;;;6036572;23;98514;-79
2023/04/26 02:52:01;;;;;;;4.72;2.33;;;4.50;99.90;;;;;;6060309;23;102403;-80
2023/04/26 02:54:29;;;;;;;9.63;3.13;;;4.50;99.90;;;;;;6060079;23;101796;-79
2023/04/26 02:56:57;;;;;;;5.75;2.20;;;4.50;99.90;;;;;;6061050;23;98469;-80
2023/04/26 02:59:26;;;;;;;9.68;4.43;;;4.40;99.90;;;;;;6037111;23;99332;-79
2023/04/26 03:01:54;;;;;;;7.13;2.95;;;4.40;99.90;;;;;;6060397;23;101563;-79
2023/04/26 03:04:22;;;;;;;4.55;2.47;;;4.30;99.90;;;;;;6060479;23;101088;-80
2023/04/26 03:06:49;;;;;;;5.53;2.50;;;4.30;99.90;;;;;;6060682;23;98524;-79
2023/04/26 03:09:16;;;;;;;6.40;2.83;;;4.30;99.90;;;;;;6063076;23;97794;-80
2023/04/26 03:11:44;;;;;;;7.07;3.03;;;4.20;99.90;;;;;;6059794;23;102396;-80
2023/04/26 03:14:12;;;;;;;5.53;3.20;;;4.20;99.90;;;;;;6060453;23;101400;-79
2023/04/26 03:16:43;;;;;;;4.30;2.20;;;4.20;99.90;;;;;;6060430;23;99621;-80
2023/04/26 03:19:10;;;;;;;7.78;2.63;;;4.20;99.90;;;;;;6036780;23;99114;-80
2023/04/26 03:21:39;;;;;;;7.22;3.13;;;4.10;99.90;;;;;;6036219;23;101761;-80
2023/04/26 03:24:06;;;;;;;9.82;2.60;;;4.10;99.90;;;;;;6062095;23;99254;-80
2023/04/26 03:26:33;;;;;;;6.75;2.50;;;4.00;99.90;;;;;;6062276;23;98454;-80
2023/04/26 03:29:02;;;;;;;10.40;3.67;;;4.00;99.90;;;;;;6060770;23;98569;-80
2023/04/26 03:31:29;;;;;;;7.57;2.53;;;4.00;99.90;;;;;;6059533;23;100217;-80
2023/04/26 03:33:56;;;;;;;10.63;3.10;;;3.90;99.90;;;;;;6036524;23;101999;-80
2023/04/26 03:36:23;;;;;;;7.05;2.45;;;3.90;99.90;;;;;;6060819;23;98611;-80
2023/04/26 03:38:50;;;;;;;9.60;3.70;;;3.90;99.90;;;;;;6060471;23;98609;-80
2023/04/26 03:41:18;;;;;;;7.45;3.13;;;3.90;99.90;;;;;;6059571;23;102046;-80
2023/04/26 03:43:45;;;;;;;8.20;3.10;;;3.90;99.90;;;;;;6035719;23;102439;-80
2023/04/26 03:46:12;;;;;;;9.88;2.80;;;3.80;99.90;;;;;;6060993;23;98468;-80
2023/04/26 03:48:39;;;;;;;4.30;2.10;;;3.80;99.90;;;;;;6060346;23;99120;-80
2023/04/26 03:51:08;;;;;;;7.45;2.83;;;3.80;99.90;;;;;;6059888;23;100109;-80
2023/04/26 03:53:35;;;;;;;8.25;2.70;;;3.70;99.90;;;;;;6059854;23;101439;-80
2023/04/26 03:56:02;;;;;;;7.30;2.90;;;3.70;99.90;;;;;;6060811;23;98533;-80
2023/04/26 03:58:31;;;;;;;5.38;2.63;;;3.70;99.90;;;;;;6037038;23;97893;-80
2023/04/26 04:00:58;;;;;;;7.40;3.10;;;3.80;99.90;;;;;;6059912;23;101862;-80
2023/04/26 04:03:25;;;;;;;7.30;2.42;;;3.80;99.90;;;;;;6036108;23;101288;-80
2023/04/26 04:05:52;;;;;;;5.32;3.05;;;3.80;99.90;;;;;;6060110;23;99285;-80
2023/04/26 04:08:19;;;;;;;10.88;2.80;;;3.90;99.90;;;;;;6060346;23;98620;-80
2023/04/26 04:10:46;;;;;;;5.20;2.67;;;4.00;99.90;;;;;;6035549;23;101860;-80
2023/04/26 04:13:13;;;;;;;7.72;2.42;;;4.00;99.90;;;;;;6036007;23;101456;-80
2023/04/26 04:15:40;;;;;;;3.35;2.40;;;4.10;99.90;;;;;;6060049;23;98447;-80
2023/04/26 04:18:08;;;;;;;9.73;2.47;;;4.20;99.90;;;;;;6060141;23;98528;-80
2023/04/26 04:20:35;;;;;;;8.57;2.55;;;4.20;99.90;;;;;;6035746;23;101574;-80
2023/04/26 04:23:05;;;;;;;4.05;2.40;;;4.30;99.90;;;;;;6036097;23;101680;-79
2023/04/26 04:25:32;;;;;;;7.28;2.20;;;4.30;99.90;;;;;;6060240;23;99184;-80
2023/04/26 04:28:03;;;;;;;5.38;2.42;;;4.40;99.90;;;;;;6036694;23;98633;-80
2023/04/26 04:30:30;;;;;;;9.50;2.92;;;4.40;99.90;;;;;;6059291;23;102390;-80
2023/04/26 04:32:58;;;;;;;6.43;2.55;;;4.50;99.90;;;;;;6059543;23;102119;-80
2023/04/26 04:35:32;;;;;;;5.28;2.35;;;4.50;99.90;;;;;;6060238;23;98542;-79
2023/04/26 04:38:02;;;;;;;4.40;2.28;;;4.60;99.90;;;;;;6060261;23;98580;-79
2023/04/26 04:40:29;;;;;;;9.77;2.35;;;4.70;99.90;;;;;;6059459;23;101183;-79
2023/04/26 04:42:59;;;;;;;8.50;2.30;;;4.70;99.90;;;;;;6036043;23;100823;-80
2023/04/26 04:45:28;;;;;;;6.07;2.22;;;4.80;99.90;;;;;;6061846;23;98465;-80
2023/04/26 04:47:57;;;;;;;3.22;2.08;;;4.90;99.90;;;;;;6061661;23;97901;-79
2023/04/26 04:50:25;;;;;;;9.30;2.60;;;4.90;99.90;;;;;;6060694;23;101642;-80
2023/04/26 04:52:52;;;;;;;11.45;2.53;;;5.10;99.90;;;;;;6060818;23;101731;-79
2023/04/26 04:55:19;;;;;;;5.28;2.50;;;5.20;99.90;;;;;;6061281;23;99204;-79
2023/04/26 04:57:46;;;;;;;8.07;2.45;;;5.20;99.90;;;;;;6061196;23;98599;-80
2023/04/26 05:00:14;;;;;;;6.85;2.20;;;5.30;99.90;;;;;;6036862;23;101521;-80
2023/04/26 05:03:04;;;;;;;4.78;2.17;;;5.40;99.90;;;;;;6060498;23;99638;-80
2023/04/26 05:05:31;;;;;;;7.38;2.92;;;5.50;99.90;;;;;;6061564;23;98741;-80
2023/04/26 05:07:58;;;;;;;4.05;2.10;;;5.70;99.90;;;;;;6036965;23;98651;-80
2023/04/26 05:10:25;;;;;;;5.20;2.10;;;5.90;99.90;;;;;;6037005;23;101506;-80
2023/04/26 05:12:52;;;;;;;6.00;2.20;;;6.30;99.90;;;;;;6061173;23;100717;-80
2023/04/26 05:15:19;;;;;;;9.20;3.50;;;6.50;99.90;;;;;;6063318;23;98495;-81
2023/04/26 05:17:46;;;;;;;3.95;2.33;;;6.60;99.90;;;;;;6061328;23;98988;-80
2023/04/26 05:20:21;;;;;;;8.25;2.42;;;6.80;99.90;;;;;;6060618;23;102262;-80
2023/04/26 05:22:49;;;;;;;4.72;2.30;;;6.80;99.90;;;;;;6060646;23;101912;-80
2023/04/26 05:25:16;;;;;;;5.45;2.22;;;6.80;99.90;;;;;;6061443;23;98579;-80
2023/04/26 05:27:47;;;;;;;4.38;2.20;;;6.80;99.90;;;;;;6061157;23;98556;-80
2023/04/26 05:30:35;;;;;;;6.63;2.20;;;6.80;99.90;;;;;;6060990;23;101456;-80
2023/04/26 05:33:24;;;;;;;5.85;2.35;;;6.70;99.90;;;;;;6060963;23;101308;-80
2023/04/26 05:36:03;;;;;;;5.68;2.28;;;6.70;99.90;;;;;;6061406;23;98527;-80
2023/04/26 05:38:31;;;;;;;5.82;2.25;;;6.80;99.90;;;;;;6061715;23;97932;-80
2023/04/26 05:40:57;;;;;;;5.00;2.72;;;6.80;99.90;;;;;;6060529;23;101978;-80
2023/04/26 05:43:25;;;;;;;7.22;2.45;;;6.90;99.90;;;;;;6061011;23;101247;-80
2023/04/26 05:45:53;;;;;;;6.38;2.40;;;6.90;99.90;;;;;;6060502;23;99318;-80
2023/04/26 05:48:21;;;;;;;5.95;2.45;;;7.00;99.90;;;;;;6061046;23;98503;-80
2023/04/26 05:50:50;;;;;;;8.70;2.70;;;7.00;99.90;;;;;;6060193;23;101526;-80
2023/04/26 05:53:19;;;;;;;7.57;3.15;;;7.10;99.90;;;;;;6036431;23;101478;-80
2023/04/26 05:55:46;;;;;;;5.15;3.35;;;7.30;99.90;;;;;;6060971;23;98590;-80
2023/04/26 05:58:14;;;;;;;4.82;2.20;;;7.40;99.90;;;;;;6037176;23;99098;-80
2023/04/26 06:00:41;;;;;;;4.22;2.55;;;7.60;99.90;;;;;;6060816;23;101655;-79
2023/04/26 06:03:08;;;;;;;7.47;3.08;;;7.70;99.90;;;;;;6036886;23;101723;-79
2023/04/26 06:05:40;;;;;;;3.80;2.50;;;7.80;99.90;;;;;;6061332;23;98527;-79
2023/04/26 06:08:07;;;;;;;5.35;2.50;;;8.20;99.90;;;;;;6037127;23;98574;-79
2023/04/26 06:10:36;;;;;;;6.57;2.60;;;8.40;99.90;;;;;;6036223;23;102506;-80
2023/04/26 06:13:03;;;;;;;2.70;2.25;;;8.50;99.90;;;;;;6060361;23;102585;-80
2023/04/26 06:15:33;;;;;;;4.50;2.33;;;8.50;99.90;;;;;;6061073;23;98531;-79
2023/04/26 06:18:00;;;;;;;6.03;2.63;;;8.50;99.90;;;;;;6060986;23;98996;-80
2023/04/26 06:20:27;;;;;;;5.25;2.70;;;8.60;99.90;;;;;;6060718;23;101435;-80
2023/04/26 06:22:54;;;;;;;5.60;2.30;;;8.80;99.90;;;;;;6060398;23;101494;-80
2023/04/26 06:25:21;;;;;;;3.75;1.90;;;9.00;99.90;;;;;;6061464;23;98491;-80
2023/04/26 06:27:48;;;;;;;2.92;1.95;;;9.50;99.90;;;;;;6061748;23;98541;-81
2023/04/26 06:30:15;;;;;;;5.55;2.20;;;10.40;99.90;;;;;;6036254;23;101523;-80
2023/04/26 06:32:45;;;;;;;5.40;2.78;;;11.30;99.90;;;;;;6060643;23;101282;-80
2023/04/26 06:35:13;;;;;;;3.90;2.97;;;12.00;99.90;;;;;;6085040;23;99362;-80
2023/04/26 06:37:40;;;;;;;4.20;2.40;;;12.40;99.90;;;;;;6085680;23;98513;-80
2023/04/26 06:40:09;;;;;;;4.38;1.80;;;12.50;99.90;;;;;;6060359;23;101629;-80
2023/04/26 06:42:36;;;;;;;3.47;2.15;;;12.60;99.90;;;;;;6060501;23;100661;-80
2023/04/26 06:45:17;;;;;;;3.83;2.22;;;12.70;99.90;;;;;;6060620;23;98519;-80
2023/04/26 06:47:45;;;;;;;6.07;2.60;;;12.90;99.90;;;;;;6060920;23;98515;-80
2023/04/26 06:50:12;;;;;;;2.80;1.77;;;13.30;99.90;;;;;;6035984;23;101501;-80
2023/04/26 06:52:39;;;;;;;6.32;2.15;;;13.60;99.40;;;;;;6062696;23;98786;-80
2023/04/26 06:55:07;;;;;;;4.18;2.03;;;13.90;98.50;;;;;;6062675;23;99082;-80
2023/04/26 06:57:33;;;;;;;3.70;2.05;;;14.10;98.10;;;;;;6062743;23;98498;-80
2023/04/26 07:00:01;;;;;;;3.67;1.80;;;13.90;97.40;;;;;;6084466;23;99950;-80
2023/04/26 07:02:27;;;;;;;3.67;1.48;;;14.00;97.50;;;;;;6062245;23;99686;-80
2023/04/26 07:04:55;;;;;;;5.13;2.22;;;14.00;97.10;;;;;;6062684;23;98533;-80
2023/04/26 07:07:22;;;;;;;5.10;2.03;;;13.90;96.90;;;;;;6062293;23;98496;-80
2023/04/26 07:09:49;;;;;;;2.65;1.90;;;13.80;96.90;;;;;;6059853;23;110765;-80
2023/04/26 07:12:16;;;;;;;3.60;1.98;;;13.80;96.80;;;;;;6061828;23;98796;-80
2023/04/26 07:14:43;;;;;;;3.75;2.40;;;13.80;96.60;;;;;;6060990;23;98553;-80
2023/04/26 07:17:10;;;;;;;4.53;2.30;;;13.80;96.80;;;;;;6036904;23;97795;-80
2023/04/26 07:19:37;;;;;;;4.70;1.90;;;13.80;96.80;;;;;;6060304;23;102678;-80
2023/04/26 07:22:04;;;;;;;3.17;1.95;;;13.80;96.20;;;;;;6062102;23;99568;-81
2023/04/26 07:24:31;;;;;;;5.57;1.95;;;13.80;95.20;;;;;;6062418;23;99591;-80
2023/04/26 07:26:58;;;;;;;5.20;2.45;;;13.80;95.30;;;;;;6062455;23;98504;-80
2023/04/26 07:29:25;;;;;;;5.53;1.85;;;14.00;95.30;;;;;;6061688;23;99311;-81
2023/04/26 07:31:52;;;;;;;2.70;1.80;;;14.20;94.90;;;;;;6084974;23;99236;-80
2023/04/26 07:34:19;;;;;;;5.22;1.98;;;14.40;95.00;;;;;;6060523;23;98481;-80
2023/04/26 07:36:46;;;;;;;4.30;2.08;;;14.80;94.60;;;;;;6085409;23;98501;-80
2023/04/26 07:39:14;;;;;;;5.38;1.90;;;15.00;93.60;;;;;;6035869;23;101771;-80
2023/04/26 07:41:41;;;;;;;2.83;1.50;;;15.20;93.50;;;;;;6062031;23;107816;-80
2023/04/26 07:44:10;;;;;;;3.65;1.40;;;15.30;92.70;;;;;;6060308;23;98499;-80
2023/04/26 07:46:37;;;;;;;4.05;1.80;;;15.40;92.40;;;;;;6062252;23;98805;-80
2023/04/26 07:49:04;;;;;;;3.75;2.10;;;15.50;91.90;;;;;;6061279;23;99970;-80
2023/04/26 07:51:32;;;;;;;3.33;2.20;;;15.70;91.80;;;;;;6061541;23;99542;-80
2023/04/26 07:53:59;;;;;;;4.95;1.90;;;16.10;91.30;;;;;;6062272;23;98383;-80
2023/04/26 07:56:26;;;;;;;2.75;1.80;;;16.50;91.10;;;;;;6062079;23;98501;-80
2023/04/26 07:58:53;;;;;;;5.80;2.17;;;17.00;90.20;;;;;;6062038;23;99308;-80
2023/04/26 08:01:20;;;;;;;5.78;1.85;;;17.40;88.50;;;;;;6061463;23;98994;-80
2023/04/26 08:03:47;;;;;;;3.97;1.60;;;18.00;86.70;;;;;;6062122;23;99030;-80
2023/04/26 08:06:15;;;;;;;3.90;2.15;;;18.40;84.10;;;;;;6062388;23;97729;-80
2023/04/26 08:08:43;;;;;;;3.75;1.75;;;18.70;82.80;;;;;;6035834;23;102038;-80
2023/04/26 08:11:11;;;;;;;5.18;2.17;;;19.10;80.00;;;;;;6059604;23;101477;-80
2023/04/26 08:13:38;;;;;;;3.35;1.92;;;19.20;77.60;;;;;;6084777;23;99640;-80
2023/04/26 08:16:05;;;;;;;4.10;1.48;;;19.50;76.90;;;;;;6060636;23;98486;-80
2023/04/26 08:18:32;;;;;;;4.55;1.92;;;19.70;76.40;;;;;;6062446;23;99234;-80
2023/04/26 08:20:59;;;;;;;4.30;1.88;;;19.70;74.40;;;;;;6062895;23;98671;-80
2023/04/26 08:23:27;;;;;;;5.50;2.05;;;19.40;72.70;;;;;;6061639;23;98535;-81
2023/04/26 08:25:54;;;;;;;3.17;2.08;;;19.20;74.30;;;;;;6037649;23;98984;-80
2023/04/26 08:28:21;;;;;;;4.90;2.17;;;18.90;73.40;;;;;;6062596;23;99217;-80
2023/04/26 08:30:48;;;;;;;3.45;1.83;;;18.80;73.20;;;;;;6061932;23;99043;-80
2023/04/26 08:33:17;;;;;;;4.40;2.00;;;18.90;73.60;;;;;;6060933;23;99274;-80
2023/04/26 08:35:44;;;;;;;4.55;2.40;;;19.20;72.60;;;;;;6063529;23;98537;-80
2023/04/26 08:38:11;;;;;;;5.05;2.10;;;19.30;71.80;;;;;;6062269;23;99960;-80
2023/04/26 08:40:41;;;;;;;4.03;1.90;;;19.40;71.60;;;;;;6062904;23;99594;-80
2023/04/26 08:43:10;;;;;;;2.67;1.95;;;19.50;70.70;;;;;;6063484;23;98445;-80
2023/04/26 08:45:40;;;;;;;6.25;2.60;;;19.40;69.90;;;;;;6061437;23;98574;-80
2023/04/26 08:48:13;;;;;;;4.63;2.10;;;19.60;69.20;;;;;;6062771;23;99174;-80
2023/04/26 08:50:42;;;;;;;;;;;19.80;68.50;;;;;;6063225;23;98926;-80
2023/04/26 08:53:12;;;;;;;7.10;2.13;;;19.50;67.10;;;;;;6064766;23;98466;-80
2023/04/26 08:55:40;;;;;;;3.90;1.67;;;19.60;68.60;;;;;;6062432;23;97770;-80
2023/04/26 08:58:07;;;;;;;4.45;1.90;;;19.30;66.00;;;;;;6061300;23;99323;-80
2023/04/26 09:00:35;;;;;;;4.97;2.03;;;18.90;67.30;;;;;;6060866;23;102019;-80
2023/04/26 09:03:03;;;;;;;4.68;2.25;;;18.70;68.40;;;;;;6062867;23;99235;-80
2023/04/26 09:05:30;;;;;;;7.32;2.03;;;18.60;69.30;;;;;;6063094;23;98698;-80
2023/04/26 09:08:00;;;;;;;5.65;2.28;;;18.40;68.70;;;;;;6061362;23;99213;-80
2023/04/26 09:10:28;;;;;;;5.60;2.30;;;18.20;69.80;;;;;;6037071;23;101527;-80
2023/04/26 09:12:55;;;;;;;5.88;2.20;;;17.60;68.90;;;;;;6061688;23;98546;-80
2023/04/26 09:15:25;;;;;;;7.25;2.47;;;17.40;69.30;;;;;;6063019;23;98509;-80
2023/04/26 09:17:52;;;;;;;4.55;2.35;;;17.30;69.70;;;;;;6085389;23;99234;-80
2023/04/26 09:20:24;;;;;;;4.82;2.30;;;17.40;69.90;;;;;;6085596;23;98664;-80
2023/04/26 09:23:02;;;;;;;5.07;2.40;;;17.50;70.30;;;;;;6061812;23;99008;-80
2023/04/26 09:25:30;;;;;;;6.55;2.40;;;17.40;69.90;;;;;;6061323;23;98524;-80
2023/04/26 09:27:59;;;;;;;5.05;2.33;;;16.90;70.50;;;;;;6060635;23;100383;-80
2023/04/26 09:30:27;;;;;;;4.35;2.00;;;16.50;70.80;;;;;;6061786;23;99678;-80
2023/04/26 09:32:54;;;;;;;5.75;2.38;;;16.40;71.00;;;;;;6061692;23;98563;-80
2023/04/26 09:35:24;;;;;;;3.13;2.00;;;16.00;71.20;;;;;;6061296;23;98618;-80
2023/04/26 09:38:04;;;;;;;7.65;2.20;;;15.70;72.40;;;;;;6061212;23;99316;-80
2023/04/26 09:40:47;;;;;;;5.90;2.03;;;15.20;74.90;;;;;;6062503;23;98936;-80
2023/04/26 09:43:16;;;;;;;4.78;2.15;;;14.90;76.50;;;;;;6063278;23;98515;-80
2023/04/26 09:45:55;;;;;;;7.43;2.45;;;14.60;76.70;;;;;;6037178;23;97814;-80
2023/04/26 09:48:24;;;;;;;5.95;2.22;;;14.70;77.80;;;;;;6060394;23;101826;-80
2023/04/26 09:50:57;;;;;;;3.53;2.05;;;14.70;78.60;;;;;;6062260;23;98899;-80
2023/04/26 09:53:40;;;;;;;4.07;1.80;;;14.60;79.80;;;;;;6060826;23;99460;-80
2023/04/26 09:56:18;;;;;;;4.32;1.95;;;14.10;76.20;;;;;;6063282;23;98914;-80
2023/04/26 09:58:58;;;;;;;5.50;2.38;;;14.00;76.20;;;;;;6062257;23;99277;-80
2023/04/26 10:01:28;;;;;;;2.13;1.90;;;13.90;76.00;;;;;;6060721;23;101599;-80
2023/04/26 10:04:03;;;;;;;6.20;2.35;;;14.20;77.30;;;;;;6085264;23;98587;-80
2023/04/26 10:06:31;;;;;;;4.60;2.15;;;14.40;76.80;;;;;;6085856;23;99023;-80
2023/04/26 10:09:00;;;;;;;4.97;2.20;;;14.20;80.20;;;;;;6036425;23;100309;-80
2023/04/26 10:11:28;;;;;;;5.65;2.17;;;14.30;81.00;;;;;;6061227;23;98909;-80
2023/04/26 10:13:55;;;;;;;4.00;2.33;;;14.30;82.30;;;;;;6061139;23;98509;-80
2023/04/26 10:16:23;;;;;;;3.50;2.22;;;14.10;81.90;;;;;;6062923;23;98458;-80
2023/04/26 10:18:50;;;;;;;2.65;1.90;;;14.10;82.00;;;;;;6060312;23;102721;-80
2023/04/26 10:21:34;;;;;;;5.60;2.20;;;14.00;82.40;;;;;;6085438;23;99679;-80
2023/04/26 10:24:01;;;;;;;6.60;2.30;;;14.10;82.40;;;;;;6061509;23;98475;-80
2023/04/26 10:26:51;;;;;;;3.67;1.92;;;13.90;82.50;;;;;;6036606;23;98632;-80
2023/04/26 10:29:19;;;;;;;2.45;2.20;;;13.80;82.20;;;;;;6062470;23;99250;-80
2023/04/26 10:32:04;;;;;;;5.82;2.92;;;13.70;81.80;;;;;;6062098;23;99147;-80
2023/04/26 10:34:35;;;;;;;5.18;2.50;;;13.80;81.80;;;;;;6062598;23;98526;-80
2023/04/26 10:37:09;;;;;;;3.75;2.40;;;13.70;83.10;;;;;;6063348;23;98208;-80
2023/04/26 10:39:38;;;;;;;4.07;1.90;;;13.70;83.10;;;;;;6060145;23;104921;-81
2023/04/26 10:42:29;;;;;;;5.82;2.22;;;13.60;84.50;;;;;;6036331;23;101915;-80
2023/04/26 10:45:27;;;;;;;5.22;2.55;;;13.60;83.70;;;;;;6062439;23;99222;-80
2023/04/26 10:48:17;;;;;;;3.65;2.58;;;13.60;85.10;;;;;;6062964;23;98517;-80
2023/04/26 10:51:07;;;;;;;4.72;2.22;;;13.30;84.30;;;;;;6060067;23;103202;-80
2023/04/26 10:53:42;;;;;;;8.32;2.40;;;13.40;85.50;;;;;;6061992;23;98952;-80
2023/04/26 10:56:10;;;;;;;4.93;2.20;;;13.50;85.20;;;;;;6062947;23;98568;-80
2023/04/26 10:58:40;;;;;;;7.97;1.67;;;13.70;85.10;;;;;;6062467;23;98466;-80
2023/04/26 11:01:10;;;;;;;5.15;2.25;;;13.50;81.80;;;;;;6062276;23;99191;-80
2023/04/26 11:03:39;;;;;;;4.30;2.00;;;13.50;81.40;;;;;;6061032;23;98933;-80
2023/04/26 11:06:12;;;;;;;5.93;2.00;;;13.60;78.90;;;;;;6060437;23;98596;-80
2023/04/26 11:08:39;;;;;;;4.35;2.05;;;13.60;77.90;;;;;;6062325;23;98937;-80
2023/04/26 11:11:10;;;;;;;5.47;2.20;;;13.80;78.40;;;;;;6061169;23;108803;-80
2023/04/26 11:13:40;;;;;;;5.45;2.40;;;14.10;79.40;;;;;;6036156;23;104286;-80
2023/04/26 11:16:11;;;;;;;5.55;2.20;;;14.10;80.40;;;;;;6061349;23;99530;-80
2023/04/26 11:18:43;;;;;;;4.60;2.08;;;14.30;80.60;;;;;;6085315;23;98469;-80
2023/04/26 11:21:11;;;;;;;5.07;2.60;;;14.60;79.70;;;;;;6062253;23;99400;-80
2023/04/26 11:23:39;;;;;;;5.03;2.10;;;14.60;79.70;;;;;;6060574;23;99355;-80
2023/04/26 11:26:09;;;;;;;4.47;2.30;;;14.70;79.50;;;;;;6061145;23;98849;-80
2023/04/26 11:28:38;;;;;;;6.85;2.70;;;14.80;79.30;;;;;;6062732;23;97637;-80
2023/04/26 11:31:06;;;;;;;3.88;1.90;;;14.90;79.20;;;;;;6062118;23;99407;-80
2023/04/26 11:33:33;;;;;;;5.70;2.05;;;14.80;78.50;;;;;;6061954;23;98868;-81
2023/04/26 11:36:01;;;;;;;5.63;2.08;;;14.50;78.90;;;;;;6036224;23;99284;-81
2023/04/26 11:38:28;;;;;;;5.15;2.10;;;14.00;81.30;;;;;;6062556;23;98966;-80
2023/04/26 11:41:00;;;;;;;5.97;2.58;;;13.80;81.10;;;;;;6035686;23;101790;-80
2023/04/26 11:43:34;;;;;;;5.65;2.53;;;13.70;82.00;;;;;;6060386;23;101631;-80
2023/04/26 11:46:02;;;;;;;;;;;13.70;82.40;;;;;;6063196;23;98510;-80
2023/04/26 11:48:29;;;;;;;3.83;2.20;;;13.60;83.10;;;;;;6063755;23;98530;-80
2023/04/26 11:50:58;;;;;;;6.70;2.53;;;13.40;81.90;;;;;;6061226;23;99755;-80
2023/04/26 11:53:38;;;;;;;3.95;2.22;;;13.40;83.60;;;;;;6063133;23;99346;-80
2023/04/26 11:56:16;;;;;;;5.75;2.20;;;13.40;85.90;;;;;;6063654;23;98490;-80
2023/04/26 11:58:48;;;;;;;6.20;2.35;;;13.20;87.80;;;;;;6063324;23;98462;-80
2023/04/26 12:01:26;;;;;;;2.70;1.98;;;12.90;88.10;;;;;;6061174;23;104729;-80
2023/04/26 12:03:58;;;;;;;3.25;2.30;;;12.80;88.30;;;;;;6061428;23;99677;-80
2023/04/26 12:06:29;;;;;;;2.88;2.13;;;12.90;88.10;;;;;;6086519;23;98481;-80
2023/04/26 12:08:56;;;;;;;3.97;2.33;;;13.00;87.20;;;;;;6063162;23;98383;-80
2023/04/26 12:11:23;;;;;;;4.53;2.40;;;13.20;85.70;;;;;;6063047;23;99350;-80
2023/04/26 12:13:50;;;;;;;6.70;1.95;;;13.30;86.40;;;;;;6061059;23;104911;-80
2023/04/26 12:16:17;;;;;;;2.20;1.15;;;13.30;87.10;;;;;;6086250;23;98519;-80
2023/04/26 12:18:53;;;;;;;2.97;1.42;;;13.10;87.60;;;;;;6062221;23;97841;-80
2023/04/26 12:21:20;;;;;;;2.10;1.30;;;12.70;87.40;;;;;;6085839;23;99427;-80
2023/04/26 12:23:47;;;;;;;3.42;1.60;;;12.50;85.50;;;;;;6061359;23;99004;-79
2023/04/26 12:26:15;;;;;;;7.80;1.73;;;12.20;86.10;;;;;;6061233;23;99220;-79
2023/04/26 12:28:42;;;;;;;2.95;1.50;;;12.00;88.20;;;;;;6063154;23;98511;-80
2023/04/26 12:31:10;;;;;;;4.60;1.70;;;11.80;89.20;;;;;;6062818;23;98980;-80
2023/04/26 12:33:37;;;;;;;6.03;1.42;;;11.70;90.20;;;;;;6061106;23;101568;-80
2023/04/26 12:36:08;;;;;;;3.40;1.42;;;11.80;90.60;;;;;;6086046;23;98398;-80
2023/04/26 12:38:36;;;;;;;4.55;1.70;;;11.80;90.60;;;;;;6061873;23;98654;-80
2023/04/26 12:41:04;;;;;;;8.73;1.63;;;11.70;91.00;;;;;;6060606;23;110445;-80
2023/04/26 12:43:31;;;;;;;2.70;1.85;;;11.60;90.70;;;;;;6063247;23;98998;-80
2023/04/26 12:45:58;;;;;;;3.45;1.30;;;11.60;91.30;;;;;;6036844;23;98547;-79
2023/04/26 12:48:25;;;;;;;5.80;1.40;;;11.60;91.60;;;;;;6063280;23;98630;-80
2023/04/26 12:50:52;;;;;;;3.70;1.70;;;11.50;92.10;;;;;;6060089;23;101478;-80
2023/04/26 12:53:19;;;;;;;3.28;1.80;;;11.40;92.60;;;;;;6085741;23;99769;-80
2023/04/26 12:55:46;;;;;;;4.57;1.85;;;11.30;93.10;;;;;;6086002;23;98555;-80
2023/04/26 12:58:13;;;;;;;4.65;2.00;;;11.50;93.70;;;;;;6061863;23;99123;-80